Jack Guidry — WDF2422 — position and weather

sailwx.info

Track history (hours):
 
Tides and Currents Weather Stations Pressure Air Temp Water Temp Dewpoint Dewpoint Depression Visibility Wind Speed Wind Dir Waves Ship Positions

Jack Guidry

More information available from US FCC via Universal Licensing System and Coast Guard Vessel Documentation Center.

Last reported at 2014-Sep-19 17:33 UTC. Time now 2014-Sep-30 19:57 UTC.
Position N 29°34' W 090°57'.
Warning: this ship's position is 11 days out of date.

Length 22 m; draft 2.5 m.

Type: Other ship. MMSI: 367003430.

Date/timePositionNaut miles runAvg speedWind from/ knotsBaromVisibWave heightAir tempDewpointWater temp
2014-Sep-19 17:33N 29°34' W 090°57'6 4.4
2014-Sep-19 16:13N 29°37' W 091°03'3 4.7
2014-Sep-19 15:33N 29°38' W 091°06'4 3.7
2014-Sep-19 14:33N 29°41' W 091°09'2 1.7
2014-Sep-19 13:33N 29°41' W 091°11'3 3.0
2014-Sep-19 12:33N 29°40' W 091°14'4 3.9
2014-Sep-19 11:33N 29°38' W 091°19'0 0.0
2014-Sep-19 10:33N 29°38' W 091°19'1 0.6
2014-Sep-19 09:33N 29°39' W 091°18'2 1.7
2014-Sep-19 08:33N 29°39' W 091°16'5 5.0
2014-Sep-19 07:33N 29°39' W 091°22'5 4.8
2014-Sep-19 06:29N 29°40' W 091°27'1 0.7
2014-Sep-19 05:33N 29°41' W 091°28'0 0.0
2014-Sep-19 04:33N 29°41' W 091°28'0 0.0
2014-Sep-19 03:33N 29°41' W 091°28'0 0.0
2014-Sep-19 02:33N 29°41' W 091°28'0 0.0
2014-Sep-19 01:33N 29°41' W 091°28'0 0.0
2014-Sep-19 00:33N 29°41' W 091°28'0 0.0
2014-Sep-18 23:33N 29°41' W 091°28'0 0.0
2014-Sep-18 22:33N 29°41' W 091°28'0 0.0
2014-Sep-18 13:07N 29°41' W 091°28'0 0.0
2014-Sep-18 12:33N 29°41' W 091°28'0 0.0
2014-Sep-18 11:33N 29°41' W 091°28'4 4.4
2014-Sep-18 10:33N 29°39' W 091°23'6 6.0
2014-Sep-18 09:33N 29°39' W 091°17'3 2.8
2014-Sep-18 08:33N 29°40' W 091°14'1 0.5
2014-Sep-18 07:33N 29°40' W 091°14'0 0.0
2014-Sep-18 06:33N 29°40' W 091°14'0 0.1
2014-Sep-18 05:33N 29°40' W 091°14'2 1.8
2014-Sep-18 04:33N 29°39' W 091°16'3 3.1
2014-Sep-18 03:33N 29°38' W 091°19'4 4.3
2014-Sep-18 02:33N 29°39' W 091°24'4 4.4
2014-Sep-18 01:33N 29°41' W 091°29'5 4.9
2014-Sep-18 00:32N 29°44' W 091°34'2 0.1
2014-Sep-17 04:04N 29°45' W 091°35'11 5.8
2014-Sep-17 02:13N 29°39' W 091°25'5 7.4
2014-Sep-17 01:33N 29°38' W 091°19'6 6.0
2014-Sep-17 00:33N 29°41' W 091°13'3 3.3
2014-Sep-16 23:33N 29°41' W 091°09'3 3.4
2014-Sep-16 22:33N 29°38' W 091°07'6 5.5
2014-Sep-16 21:26N 29°37' W 090°60'  
2014-Sep-11 06:32N 29°33' W 090°42'7 1.6
2014-Sep-11 02:27N 29°32' W 090°50'5 5.3
2014-Sep-11 01:33N 29°33' W 090°55'7 5.1
2014-Sep-11 00:08N 29°37' W 091°02'3 5.2
2014-Sep-10 23:33N 29°38' W 091°05'4 4.3
2014-Sep-10 22:33N 29°41' W 091°09'5 4.7
2014-Sep-10 21:34N 29°40' W 091°14'5 4.7
2014-Sep-10 20:33N 29°38' W 091°19'6 5.4
2014-Sep-10 19:24N 29°40' W 091°26'2 0.8
2014-Sep-10 17:20N 29°41' W 091°28'0 0.0
2014-Sep-10 15:33N 29°41' W 091°28'0 0.0
2014-Sep-10 14:31N 29°41' W 091°28'0 0.0
2014-Sep-10 13:33N 29°41' W 091°28'0 0.0
2014-Sep-10 12:33N 29°41' W 091°28'0 0.0
2014-Sep-10 11:33N 29°41' W 091°28'0 0.0
2014-Sep-10 10:33N 29°41' W 091°28'0 0.0
2014-Sep-10 09:33N 29°41' W 091°28'0 0.0
2014-Sep-10 08:33N 29°41' W 091°28'0 0.3
2014-Sep-10 07:33N 29°41' W 091°28'5 5.0
2014-Sep-10 06:33N 29°39' W 091°22'7 6.8
2014-Sep-10 05:34N 29°39' W 091°15'4 4.3
2014-Sep-10 04:33N 29°41' W 091°10'6 5.9
2014-Sep-10 03:33N 29°38' W 091°05'6 5.9
2014-Sep-10 02:34N 29°36' W 090°58'  
Track history (hours):
 
Tides and Currents Weather Stations Pressure Air Temp Water Temp Dewpoint Dewpoint Depression Visibility Wind Speed Wind Dir Waves Ship Positions

Jack Guidry

More information available from US FCC via Universal Licensing System and Coast Guard Vessel Documentation Center.

Last reported at 2014-Sep-19 17:33 UTC. Time now 2014-Sep-30 19:57 UTC.
Position N 29°34' W 090°57'.
Warning: this ship's position is 11 days out of date.

Length 22 m; draft 2.5 m.

Type: Other ship. MMSI: 367003430.

Date/timePositionNaut miles runAvg speedWind from/ knotsBaromVisibWave heightAir tempDewpointWater temp
2014-Sep-19 17:33N 29°34' W 090°57'6 4.4
2014-Sep-19 16:13N 29°37' W 091°03'3 4.7
2014-Sep-19 15:33N 29°38' W 091°06'4 3.7
2014-Sep-19 14:33N 29°41' W 091°09'2 1.7
2014-Sep-19 13:33N 29°41' W 091°11'3 3.0
2014-Sep-19 12:33N 29°40' W 091°14'4 3.9
2014-Sep-19 11:33N 29°38' W 091°19'0 0.0
2014-Sep-19 10:33N 29°38' W 091°19'1 0.6
2014-Sep-19 09:33N 29°39' W 091°18'2 1.7
2014-Sep-19 08:33N 29°39' W 091°16'5 5.0
2014-Sep-19 07:33N 29°39' W 091°22'5 4.8
2014-Sep-19 06:29N 29°40' W 091°27'1 0.7
2014-Sep-19 05:33N 29°41' W 091°28'0 0.0
2014-Sep-19 04:33N 29°41' W 091°28'0 0.0
2014-Sep-19 03:33N 29°41' W 091°28'0 0.0
2014-Sep-19 02:33N 29°41' W 091°28'0 0.0
2014-Sep-19 01:33N 29°41' W 091°28'0 0.0
2014-Sep-19 00:33N 29°41' W 091°28'0 0.0
2014-Sep-18 23:33N 29°41' W 091°28'0 0.0
2014-Sep-18 22:33N 29°41' W 091°28'0 0.0
2014-Sep-18 13:07N 29°41' W 091°28'0 0.0
2014-Sep-18 12:33N 29°41' W 091°28'0 0.0
2014-Sep-18 11:33N 29°41' W 091°28'4 4.4
2014-Sep-18 10:33N 29°39' W 091°23'6 6.0
2014-Sep-18 09:33N 29°39' W 091°17'3 2.8
2014-Sep-18 08:33N 29°40' W 091°14'1 0.5
2014-Sep-18 07:33N 29°40' W 091°14'0 0.0
2014-Sep-18 06:33N 29°40' W 091°14'0 0.1
2014-Sep-18 05:33N 29°40' W 091°14'2 1.8
2014-Sep-18 04:33N 29°39' W 091°16'3 3.1
2014-Sep-18 03:33N 29°38' W 091°19'4 4.3
2014-Sep-18 02:33N 29°39' W 091°24'4 4.4
2014-Sep-18 01:33N 29°41' W 091°29'5 4.9
2014-Sep-18 00:32N 29°44' W 091°34'2 0.1
2014-Sep-17 04:04N 29°45' W 091°35'11 5.8
2014-Sep-17 02:13N 29°39' W 091°25'5 7.4
2014-Sep-17 01:33N 29°38' W 091°19'6 6.0
2014-Sep-17 00:33N 29°41' W 091°13'3 3.3
2014-Sep-16 23:33N 29°41' W 091°09'3 3.4
2014-Sep-16 22:33N 29°38' W 091°07'6 5.5
2014-Sep-16 21:26N 29°37' W 090°60'  
2014-Sep-11 06:32N 29°33' W 090°42'7 1.6
2014-Sep-11 02:27N 29°32' W 090°50'5 5.3
2014-Sep-11 01:33N 29°33' W 090°55'7 5.1
2014-Sep-11 00:08N 29°37' W 091°02'3 5.2
2014-Sep-10 23:33N 29°38' W 091°05'4 4.3
2014-Sep-10 22:33N 29°41' W 091°09'5 4.7
2014-Sep-10 21:34N 29°40' W 091°14'5 4.7
2014-Sep-10 20:33N 29°38' W 091°19'6 5.4
2014-Sep-10 19:24N 29°40' W 091°26'2 0.8
2014-Sep-10 17:20N 29°41' W 091°28'0 0.0
2014-Sep-10 15:33N 29°41' W 091°28'0 0.0
2014-Sep-10 14:31N 29°41' W 091°28'0 0.0
2014-Sep-10 13:33N 29°41' W 091°28'0 0.0
2014-Sep-10 12:33N 29°41' W 091°28'0 0.0
2014-Sep-10 11:33N 29°41' W 091°28'0 0.0
2014-Sep-10 10:33N 29°41' W 091°28'0 0.0
2014-Sep-10 09:33N 29°41' W 091°28'0 0.0
2014-Sep-10 08:33N 29°41' W 091°28'0 0.3
2014-Sep-10 07:33N 29°41' W 091°28'5 5.0
2014-Sep-10 06:33N 29°39' W 091°22'7 6.8
2014-Sep-10 05:34N 29°39' W 091°15'4 4.3
2014-Sep-10 04:33N 29°41' W 091°10'6 5.9
2014-Sep-10 03:33N 29°38' W 091°05'6 5.9
2014-Sep-10 02:34N 29°36' W 090°58'  

Dump ship's entire track history